createdAt,value
2023-03-11T00:02:40.367Z,1.4
2023-03-11T00:17:50.198Z,1.4
2023-03-11T00:32:59.955Z,1.4
2023-03-11T00:48:09.024Z,1.5
2023-03-11T01:03:18.876Z,1.5
2023-03-11T01:18:28.248Z,1.4
2023-03-11T01:33:37.415Z,1.3
2023-03-11T01:48:46.475Z,1.3
2023-03-11T02:03:55.821Z,1.3
2023-03-11T02:19:05.242Z,1.3
2023-03-11T02:34:14.435Z,1.2
2023-03-11T02:49:24.168Z,1.1
2023-03-11T03:04:32.911Z,1.2
2023-03-11T03:19:43.077Z,1.2
2023-03-11T03:34:51.885Z,1.1
2023-03-11T03:50:01.089Z,1.1
2023-03-11T04:05:10.802Z,1.1
2023-03-11T04:20:20.393Z,1
2023-03-11T04:35:29.823Z,1
2023-03-11T04:50:40.965Z,0.9
2023-03-11T05:05:50.880Z,0.8
2023-03-11T05:21:00.384Z,0.9
2023-03-11T05:36:10.481Z,0.9
2023-03-11T05:51:20.278Z,0.8
2023-03-11T06:06:29.716Z,0.8
2023-03-11T06:21:39.336Z,0.8
2023-03-11T06:36:48.877Z,0.7
2023-03-11T06:51:59.434Z,0.9
2023-03-11T07:07:08.595Z,0.9
2023-03-11T07:22:17.883Z,0.8
2023-03-11T07:37:27.540Z,0.8
2023-03-11T07:52:38.988Z,0.8
2023-03-11T08:07:48.332Z,0.9
2023-03-11T08:22:58.658Z,0.8
2023-03-11T08:38:08.328Z,1
2023-03-11T08:53:18.768Z,1.2
2023-03-11T09:08:28.457Z,1.4
2023-03-11T09:23:37.738Z,1.5
2023-03-11T09:38:47.543Z,1.6
2023-03-11T09:53:57.414Z,1.7
2023-03-11T10:09:07.963Z,1.8
2023-03-11T10:24:17.754Z,1.8
2023-03-11T10:39:27.037Z,1.8
2023-03-11T10:54:37.777Z,2
2023-03-11T11:09:48.060Z,2.2
2023-03-11T11:24:57.500Z,2.3
2023-03-11T11:40:08.739Z,2.6
2023-03-11T11:55:21.296Z,2.9
2023-03-11T12:10:30.853Z,3.4
2023-03-11T12:25:43.313Z,6.1
2023-03-11T12:40:52.805Z,6.6
2023-03-11T12:56:02.523Z,7
2023-03-11T13:11:12.848Z,7.3
2023-03-11T13:26:23.742Z,7.5
2023-03-11T13:41:33.757Z,7.5
2023-03-11T13:56:44.072Z,9.4
2023-03-11T14:11:53.426Z,9.4
2023-03-11T14:27:03.506Z,8.5
2023-03-11T14:42:13.274Z,8.7
2023-03-11T14:57:22.348Z,8.3
2023-03-11T15:12:31.726Z,8.1
2023-03-11T15:27:42.176Z,7.6
2023-03-11T15:42:51.936Z,7.6
2023-03-11T15:58:02.892Z,7.4
2023-03-11T16:13:11.350Z,7.2
2023-03-11T16:28:22.671Z,8.3
2023-03-11T16:43:30.886Z,7.1
2023-03-11T16:58:38.840Z,5.1
2023-03-11T17:13:47.272Z,4.1
2023-03-11T17:28:55.393Z,3.6
2023-03-11T17:44:04.228Z,3.3
2023-03-11T17:59:13.329Z,3
2023-03-11T18:14:22.943Z,2.7
2023-03-11T18:29:32.450Z,2.6
2023-03-11T18:44:41.961Z,2.4
2023-03-11T18:59:51.538Z,2.3
2023-03-11T19:15:01.035Z,2.1
2023-03-11T19:30:10.145Z,1.9
2023-03-11T19:45:18.741Z,1.8
2023-03-11T20:00:27.681Z,1.7
2023-03-11T20:15:37.650Z,1.6
2023-03-11T20:30:48.027Z,1.6
2023-03-11T20:45:58.009Z,1.6
2023-03-11T21:01:07.701Z,1.5
2023-03-11T21:16:17.638Z,1.5
2023-03-11T21:31:29.537Z,1.5
2023-03-11T21:46:40.770Z,1.5
2023-03-11T22:01:51.325Z,1.6
2023-03-11T22:17:01.531Z,1.6
2023-03-11T22:32:11.390Z,1.4
2023-03-11T22:47:19.756Z,1.3
2023-03-11T23:02:28.364Z,1.2
2023-03-11T23:17:42.155Z,1.2
2023-03-11T23:32:52.344Z,1.1
2023-03-11T23:48:02.763Z,1.1
